Time;durP1;ratioP1;P1;durP2;ratioP2;P2;SDS_P1;SDS_P2;PMS_P1;PMS_P2;Temp;Humidity;BMP_temperature;BMP_pressure;BME280_temperature;BME280_humidity;BME280_pressure;Samples;Min_cycle;Max_cycle;Signal;HPM_P1;HPM_P2
2023/08/28 00:01:53;;;;;;;;;;;;;;;11.63;100.00;101041.66;4961983;28;21501;-88
2023/08/28 00:04:39;;;;;;;;;;;;;;;11.61;100.00;101039.06;4950842;28;19930;-89
2023/08/28 00:07:25;;;;;;;;;;;;;;;11.60;100.00;101039.16;4930266;28;20349;-88
2023/08/28 00:10:10;;;;;;;;;;;;;;;11.58;100.00;101054.25;4937403;28;20400;-89
2023/08/28 00:12:56;;;;;;;;;;;;;;;11.55;100.00;101058.78;4945170;28;19930;-87
2023/08/28 00:15:41;;;;;;;;;;;;;;;11.50;100.00;101052.84;4942489;28;19942;-87
2023/08/28 00:18:27;;;;;;;;;;;;;;;11.49;100.00;101059.06;4935786;28;20634;-88
2023/08/28 00:21:13;;;;;;;;;;;;;;;11.48;100.00;101057.34;4936526;28;19937;-87
2023/08/28 00:23:58;;;;;;;;;;;;;;;11.48;100.00;101057.34;4929287;28;20292;-87
2023/08/28 00:26:44;;;;;;;;;;;;;;;11.49;100.00;101061.72;4937681;28;19941;-88
2023/08/28 00:29:30;;;;;;;;;;;;;;;11.48;100.00;101053.81;4942176;28;20408;-89
2023/08/28 00:32:15;;;;;;;;;;;;;;;11.49;100.00;101051.13;4934434;28;19931;-89
2023/08/28 00:35:01;;;;;;;;;;;;;;;11.49;100.00;101051.13;4934413;28;19934;-87
2023/08/28 00:37:47;;;;;;;;;;;;;;;11.50;100.00;101047.53;4943926;28;19996;-88
2023/08/28 00:40:32;;;;;;;;;;;;;;;11.48;100.00;101049.41;4934348;28;20025;-86
2023/08/28 00:43:18;;;;;;;;;;;;;;;11.48;100.00;101049.41;4938721;28;20035;-88
2023/08/28 00:46:04;;;;;;;;;;;;;;;11.49;100.00;101043.16;4948145;28;19930;-88
2023/08/28 00:48:50;;;;;;;;;;;;;;;11.48;100.00;101044.09;4945242;28;19980;-88
2023/08/28 00:51:35;;;;;;;;;;;;;;;11.48;100.00;101038.78;4928134;28;20053;-89
2023/08/28 00:54:21;;;;;;;;;;;;;;;11.49;100.00;101027.25;4932368;28;19930;-90
2023/08/28 00:57:08;;;;;;;;;;;;;;;11.51;100.00;101027.19;4939823;28;19977;-90
2023/08/28 00:59:53;;;;;;;;;;;;;;;11.50;100.00;101021.00;4934488;28;19933;-88
2023/08/28 01:02:40;;;;;;;;;;;;;;;11.49;100.00;101018.47;4944092;28;19934;-89
2023/08/28 01:05:44;;;;;;;;;;;;;;;11.46;100.00;101015.94;4943960;28;19962;-90
2023/08/28 01:08:34;;;;;;;;;;;;;;;11.44;100.00;101013.34;4945709;28;19936;-87
2023/08/28 01:11:22;;;;;;;;;;;;;;;11.43;100.00;101027.53;4940077;28;19933;-88
2023/08/28 01:14:40;;;;;;;;;;;;;;;11.40;100.00;101009.97;4945810;28;20037;-89
2023/08/28 01:17:26;;;;;;;;;;;;;;;11.39;100.00;101004.78;4966348;28;20672;-88
2023/08/28 01:20:13;;;;;;;;;;;;;;;11.38;100.00;101005.66;4946705;28;19937;-89
2023/08/28 01:23:05;;;;;;;;;;;;;;;11.37;100.00;101006.59;4937941;28;19938;-89
2023/08/28 01:25:50;;;;;;;;;;;;;;;11.36;100.00;101013.72;4947824;28;19930;-90
2023/08/28 01:28:36;;;;;;;;;;;;;;;11.35;100.00;101001.41;4950048;28;20060;-89
2023/08/28 01:31:22;;;;;;;;;;;;;;;11.35;100.00;100995.22;4944674;28;19962;-87
2023/08/28 01:34:08;;;;;;;;;;;;;;;11.35;100.00;100997.88;4938830;28;19999;-89
2023/08/28 01:36:55;;;;;;;;;;;;;;;11.34;100.00;100993.50;4936851;28;20381;-89
2023/08/28 01:39:42;;;;;;;;;;;;;;;11.34;100.00;100997.00;4963477;28;20303;-89
2023/08/28 01:42:27;;;;;;;;;;;;;;;11.34;100.00;100990.88;4932484;28;19981;-89
2023/08/28 01:45:14;;;;;;;;;;;;;;;11.34;100.00;100993.50;4938733;28;19936;-88
2023/08/28 01:48:00;;;;;;;;;;;;;;;11.32;100.00;100987.44;4947284;28;19930;-89
2023/08/28 01:50:46;;;;;;;;;;;;;;;11.33;100.00;100986.50;4946778;28;19931;-88
2023/08/28 01:53:32;;;;;;;;;;;;;;;11.34;100.00;100993.50;4964642;28;20021;-89
2023/08/28 01:56:18;;;;;;;;;;;;;;;11.36;100.00;100996.94;4950027;28;19931;-90
2023/08/28 01:59:03;;;;;;;;;;;;;;;11.36;100.00;101008.41;4949035;28;19930;-89
2023/08/28 02:01:51;;;;;;;;;;;;;;;11.38;100.00;101008.31;4947269;28;20293;-89
2023/08/28 02:04:37;;;;;;;;;;;;;;;11.37;100.00;101019.88;4947805;28;19966;-89
2023/08/28 02:07:23;;;;;;;;;;;;;;;11.36;100.00;101028.75;4960382;28;19982;-88
2023/08/28 02:10:08;;;;;;;;;;;;;;;11.33;100.00;101028.91;4968765;28;20389;-89
2023/08/28 02:12:54;;;;;;;;;;;;;;;11.31;100.00;101030.75;4971380;28;20355;-87
2023/08/28 02:15:40;;;;;;;;;;;;;;;11.28;100.00;101035.25;4970376;28;19952;-89
2023/08/28 02:18:25;;;;;;;;;;;;;;;11.24;100.00;101031.00;4943445;28;19979;-88
2023/08/28 02:21:11;;;;;;;;;;;;;;;11.21;100.00;101033.81;4971028;28;19941;-89
2023/08/28 02:23:56;;;;;;;;;;;;;;;11.21;100.00;101025.00;4940061;28;19930;-89
2023/08/28 02:26:42;;;;;;;;;;;;;;;11.20;100.00;101040.06;4953344;28;19962;-88
2023/08/28 02:29:28;;;;;;;;;;;;;;;11.20;100.00;101036.53;4957256;28;20511;-89
2023/08/28 02:32:16;;;;;;;;;;;;;;;11.20;100.00;101048.00;4974406;28;20376;-89
2023/08/28 02:35:02;;;;;;;;;;;;;;;11.18;100.00;101052.53;4971902;28;20463;-88
2023/08/28 02:37:48;;;;;;;;;;;;;;;11.18;100.00;101049.00;4974333;28;19934;-88
2023/08/28 02:40:37;;;;;;;;;;;;;;;11.16;100.00;101059.66;4941430;28;20416;-89
2023/08/28 02:43:22;;;;;;;;;;;;;;;11.12;100.00;101052.78;4941555;28;19932;-88
2023/08/28 02:46:08;;;;;;;;;;;;;;;11.10;100.00;101054.63;4954299;28;20642;-90
2023/08/28 02:48:54;;;;;;;;;;;;;;;11.08;100.00;101056.50;4964181;28;20004;-88
2023/08/28 02:51:40;;;;;;;;;;;;;;;11.07;100.00;101049.47;4966243;28;19926;-87
2023/08/28 02:54:26;;;;;;;;;;;;;;;11.06;100.00;101053.06;4953620;28;19957;-89
2023/08/28 02:57:11;;;;;;;;;;;;;;;11.04;100.00;101061.06;4943240;28;19999;-88
2023/08/28 02:59:57;;;;;;;;;;;;;;;11.02;100.00;101059.41;4955436;28;20064;-87
2023/08/28 03:02:43;;;;;;;;;;;;;;;10.98;100.00;101061.34;4938934;28;20013;-89
2023/08/28 03:05:28;;;;;;;;;;;;;;;10.94;100.00;101060.63;4953685;28;20311;-90
2023/08/28 03:08:14;;;;;;;;;;;;;;;10.92;100.00;101054.53;4938885;28;19938;-88
2023/08/28 03:11:00;;;;;;;;;;;;;;;10.89;100.00;101061.75;4935983;28;19926;-88
2023/08/28 03:13:48;;;;;;;;;;;;;;;10.88;100.00;101066.16;4952400;28;19981;-91
2023/08/28 03:16:33;;;;;;;;;;;;;;;10.88;100.00;101057.38;4954990;28;19933;-90
2023/08/28 03:19:19;;;;;;;;;;;;;;;10.86;100.00;101063.59;4972702;28;19930;-89
2023/08/28 03:22:05;;;;;;;;;;;;;;;10.87;100.00;101072.41;4974796;27;21905;-89
2023/08/28 03:24:52;;;;;;;;;;;;;;;10.86;100.00;101071.53;4964616;28;20555;-89
2023/08/28 03:27:37;;;;;;;;;;;;;;;10.84;100.00;101069.91;4953033;28;19930;-90
2023/08/28 03:30:23;;;;;;;;;;;;;;;10.84;100.00;101067.25;4970727;28;19930;-88
2023/08/28 03:33:12;;;;;;;;;;;;;;;10.84;100.00;101054.00;4943178;28;19937;-87
2023/08/28 03:35:59;;;;;;;;;;;;;;;10.86;100.00;101054.78;4942499;28;19955;-89
2023/08/28 03:38:45;;;;;;;;;;;;;;;10.86;100.00;101052.16;4945138;28;19929;-90
2023/08/28 03:41:31;;;;;;;;;;;;;;;10.85;100.00;101056.56;4959223;28;19957;-88
2023/08/28 03:44:16;;;;;;;;;;;;;;;10.84;100.00;101056.66;4956805;28;19930;-89
2023/08/28 03:47:02;;;;;;;;;;;;;;;10.83;100.00;101057.56;4957653;28;19987;-88
2023/08/28 03:49:47;;;;;;;;;;;;;;;10.81;100.00;101056.78;4969742;28;21388;-89
2023/08/28 03:52:33;;;;;;;;;;;;;;;10.79;100.00;101051.53;4971675;28;19930;-89
2023/08/28 03:55:19;;;;;;;;;;;;;;;10.75;100.00;101043.78;4970520;28;19933;-89
2023/08/28 03:58:05;;;;;;;;;;;;;;;10.74;100.00;101042.94;4946542;28;19941;-88
2023/08/28 04:00:53;;;;;;;;;;;;;;;10.73;100.00;101050.03;4953721;28;19961;-89
2023/08/28 04:03:39;;;;;;;;;;;;;;;10.72;100.00;101055.38;4956662;28;19930;-89
2023/08/28 04:06:25;;;;;;;;;;;;;;;10.70;100.00;101068.69;5002105;28;19941;-88
2023/08/28 04:09:10;;;;;;;;;;;;;;;10.69;100.00;101066.09;4970232;28;19938;-91
2023/08/28 04:11:56;;;;;;;;;;;;;;;10.69;100.00;101079.34;4958345;28;19952;-90
2023/08/28 04:14:42;;;;;;;;;;;;;;;10.70;100.00;101079.28;4943515;28;20826;-90
2023/08/28 04:17:28;;;;;;;;;;;;;;;10.74;100.00;101072.06;4965278;28;20398;-89
2023/08/28 04:20:14;;;;;;;;;;;;;;;10.79;100.00;101071.88;4955529;28;20388;-89
2023/08/28 04:23:00;;;;;;;;;;;;;;;10.82;100.00;101072.59;4969412;28;19930;-89
2023/08/28 04:25:46;;;;;;;;;;;;;;;10.86;100.00;101075.97;4958564;28;19938;-89
2023/08/28 04:28:31;;;;;;;;;;;;;;;10.92;100.00;101070.44;4971008;28;19936;-88
2023/08/28 04:31:19;;;;;;;;;;;;;;;11.01;100.00;101069.16;4969045;28;19926;-89
2023/08/28 04:34:04;;;;;;;;;;;;;;;11.09;100.00;101058.22;4968868;28;19932;-89
2023/08/28 04:36:50;;;;;;;;;;;;;;;11.16;100.00;101054.34;4941399;28;19933;-89
2023/08/28 04:39:36;;;;;;;;;;;;;;;11.20;100.00;101049.78;4958458;28;19937;-90
2023/08/28 04:42:21;;;;;;;;;;;;;;;11.24;100.00;101046.91;4935680;28;19926;-90
2023/08/28 04:45:07;;;;;;;;;;;;;;;11.25;100.00;101047.78;4955396;28;19999;-90
2023/08/28 04:47:53;;;;;;;;;;;;;;;11.26;100.00;101061.00;4957179;28;20170;-89
2023/08/28 04:50:39;;;;;;;;;;;;;;;11.26;100.00;101066.28;4956871;28;20396;-89
2023/08/28 04:53:24;;;;;;;;;;;;;;;11.28;100.00;101075.03;4955903;28;19937;-90
2023/08/28 04:56:10;;;;;;;;;;;;;;;11.28;100.00;101080.31;4939438;28;19991;-90
2023/08/28 04:58:55;;;;;;;;;;;;;;;11.28;100.00;101075.03;4950924;28;20457;-89
2023/08/28 05:01:41;;;;;;;;;;;;;;;11.28;100.00;101090.06;4953901;28;20347;-90
2023/08/28 05:04:27;;;;;;;;;;;;;;;11.28;100.00;101098.88;4968682;28;19969;-90
2023/08/28 05:07:15;;;;;;;;;;;;;;;11.31;100.00;101099.66;4967112;28;19930;-90
2023/08/28 05:10:01;;;;;;;;;;;;;;;11.30;100.00;101098.81;4939507;28;20037;-90
2023/08/28 05:12:47;;;;;;;;;;;;;;;11.29;100.00;101091.78;4953820;28;19934;-90
2023/08/28 05:15:35;;;;;;;;;;;;;;;11.30;100.00;101100.59;4947510;28;20437;-89
2023/08/28 05:18:20;;;;;;;;;;;;;;;11.32;100.00;101112.00;4933816;28;19937;-90
2023/08/28 05:21:06;;;;;;;;;;;;;;;11.32;100.00;101114.66;4968045;28;20434;-89
2023/08/28 05:23:51;;;;;;;;;;;;;;;11.35;100.00;101114.50;4949328;28;19984;-89
2023/08/28 05:26:37;;;;;;;;;;;;;;;11.36;100.00;101125.06;4942108;28;19945;-89
2023/08/28 05:29:23;;;;;;;;;;;;;;;11.38;100.00;101128.47;4972302;28;20022;-91
2023/08/28 05:32:08;;;;;;;;;;;;;;;11.39;100.00;101134.66;4966839;28;20419;-89
2023/08/28 05:34:57;;;;;;;;;;;;;;;11.43;100.00;101136.22;4967152;28;19988;-90
2023/08/28 05:37:43;;;;;;;;;;;;;;;11.49;100.00;101140.41;4965917;28;20361;-89
2023/08/28 05:40:29;;;;;;;;;;;;;;;11.54;100.00;101139.28;4994743;28;19934;-89
2023/08/28 05:43:15;;;;;;;;;;;;;;;11.60;100.00;101127.50;4966667;28;19927;-89
2023/08/28 05:46:01;;;;;;;;;;;;;;;11.64;100.00;101129.13;4936660;28;19941;-91
2023/08/28 05:48:46;;;;;;;;;;;;;;;11.71;100.00;101123.53;4946089;28;20066;-90
2023/08/28 05:51:32;;;;;;;;;;;;;;;11.78;100.00;101125.81;4952323;28;20025;-90
2023/08/28 05:54:18;;;;;;;;;;;;;;;11.86;100.00;101128.13;4975223;28;19930;-90
2023/08/28 05:57:04;;;;;;;;;;;;;;;11.92;100.00;101135.78;4955846;28;19945;-90
2023/08/28 05:59:50;;;;;;;;;;;;;;;11.98;100.00;101129.34;4940330;28;19937;-90
2023/08/28 06:02:35;;;;;;;;;;;;;;;12.06;100.00;101135.19;4944359;28;19931;-90
2023/08/28 06:05:21;;;;;;;;;;;;;;;12.13;100.00;101134.88;4943126;28;20460;-89
2023/08/28 06:08:07;;;;;;;;;;;;;;;12.24;100.00;101131.75;4946688;28;19930;-88
2023/08/28 06:10:52;;;;;;;;;;;;;;;12.34;100.00;101139.19;4956465;28;19931;-90
2023/08/28 06:13:38;;;;;;;;;;;;;;;12.45;100.00;101132.47;4953993;28;19973;-89
2023/08/28 06:16:24;;;;;;;;;;;;;;;12.55;100.00;101136.41;4942198;28;19932;-89
2023/08/28 06:19:09;;;;;;;;;;;;;;;12.65;100.00;101131.50;4958310;28;19988;-89
2023/08/28 06:21:55;;;;;;;;;;;;;;;12.76;100.00;101128.31;4962056;28;20406;-90
2023/08/28 06:24:42;;;;;;;;;;;;;;;12.87;100.00;101128.63;4938951;28;19974;-89
2023/08/28 06:27:30;;;;;;;;;;;;;;;13.00;100.00;101130.66;4950824;28;19935;-89
2023/08/28 06:30:16;;;;;;;;;;;;;;;13.23;100.00;101125.97;4940296;28;20012;-89
2023/08/28 06:33:04;;;;;;;;;;;;;;;13.55;100.00;101134.94;4952369;28;19935;-89
2023/08/28 06:35:50;;;;;;;;;;;;;;;13.84;100.00;101136.97;4937625;28;19926;-89
2023/08/28 06:38:35;;;;;;;;;;;;;;;14.10;100.00;101137.31;4930524;28;19934;-89
2023/08/28 06:41:21;;;;;;;;;;;;;;;14.30;100.00;101132.66;4940960;28;20576;-89
2023/08/28 06:44:07;;;;;;;;;;;;;;;14.47;100.00;101135.25;4935892;28;20075;-88
2023/08/28 06:46:53;;;;;;;;;;;;;;;14.62;100.00;101130.84;5002087;28;20005;-88
2023/08/28 06:49:39;;;;;;;;;;;;;;;14.79;100.00;101129.88;4956725;28;19942;-88
2023/08/28 06:52:24;;;;;;;;;;;;;;;14.98;100.00;101130.59;4941451;28;21679;-89
2023/08/28 06:55:12;;;;;;;;;;;;;;;15.16;100.00;101128.63;4951502;28;19984;-87
2023/08/28 06:57:58;;;;;;;;;;;;;;;15.30;100.00;101123.31;4969149;28;19941;-89
2023/08/28 07:00:44;;;;;;;;;;;;;;;15.43;100.00;101135.91;4938988;28;20321;-87
2023/08/28 07:03:30;;;;;;;;;;;;;;;15.57;100.00;101140.38;4947891;28;19980;-87
2023/08/28 07:06:16;;;;;;;;;;;;;;;15.71;100.00;101129.72;4936059;28;20901;-88
2023/08/28 07:09:01;;;;;;;;;;;;;;;15.84;100.00;101127.13;4948366;28;19930;-89
2023/08/28 07:11:47;;;;;;;;;;;;;;;15.91;100.00;101132.91;4936081;28;19938;-87
2023/08/28 07:14:33;;;;;;;;;;;;;;;15.98;100.00;101136.97;4951759;28;20033;-88
2023/08/28 07:17:18;;;;;;;;;;;;;;;16.03;100.00;101139.34;4998082;28;20011;-87
2023/08/28 07:20:06;;;;;;;;;;;;;;;16.08;100.00;101150.56;4946687;28;19930;-87
2023/08/28 07:22:54;;;;;;;;;;;;;;;16.07;100.00;101146.19;4937905;28;19931;-86
2023/08/28 07:25:40;;;;;;;;;;;;;;;16.09;100.00;101141.63;4965230;28;19926;-86
2023/08/28 07:28:28;;;;;;;;;;;;;;;16.11;100.00;101145.03;4948416;28;20548;-86
2023/08/28 07:31:14;;;;;;;;;;;;;;;16.13;100.00;101142.28;4946766;28;20024;-86
2023/08/28 07:34:00;;;;;;;;;;;;;;;16.12;100.00;101149.41;4968416;28;19925;-85
2023/08/28 07:36:46;;;;;;;;;;;;;;;16.09;100.00;101146.97;4951776;28;19931;-84
2023/08/28 07:39:31;;;;;;;;;;;;;;;16.04;100.00;101154.41;4975515;28;19928;-84
2023/08/28 07:42:17;;;;;;;;;;;;;;;16.06;100.00;101163.16;4957702;28;19927;-86
2023/08/28 07:45:05;;;;;;;;;;;;;;;16.02;100.00;101165.16;4964574;28;19932;-85
2023/08/28 07:47:51;;;;;;;;;;;;;;;16.05;100.00;101169.47;4944098;28;19927;-89
2023/08/28 07:50:37;;;;;;;;;;;;;;;16.07;100.00;101164.88;4949022;28;19937;-88
2023/08/28 07:53:23;;;;;;;;;;;;;;;16.11;100.00;101163.72;4938830;28;19935;-89
2023/08/28 07:56:12;;;;;;;;;;;;;;;16.11;100.00;101171.75;4953856;28;20212;-89
2023/08/28 07:58:58;;;;;;;;;;;;;;;16.19;100.00;101173.06;4936838;28;20008;-90
2023/08/28 08:01:43;;;;;;;;;;;;;;;16.28;100.00;101168.00;4942586;28;19938;-90
2023/08/28 08:04:29;;;;;;;;;;;;;;;16.34;100.00;101166.72;4976667;28;20468;-90
2023/08/28 08:07:15;;;;;;;;;;;;;;;16.41;100.00;101172.53;4952277;28;20374;-90
2023/08/28 08:10:00;;;;;;;;;;;;;;;16.53;100.00;101166.41;4985020;28;20383;-90
2023/08/28 08:12:46;;;;;;;;;;;;;;;16.61;100.00;101168.53;4968458;28;19980;-89
2023/08/28 08:15:32;;;;;;;;;;;;;;;16.54;100.00;101175.25;4920179;28;19930;-88
2023/08/28 08:18:17;;;;;;;;;;;;;;;16.48;100.00;101184.53;4940694;28;19959;-90
2023/08/28 08:21:03;;;;;;;;;;;;;;;16.46;100.00;101180.25;4941526;28;19934;-91
2023/08/28 08:23:49;;;;;;;;;;;;;;;16.55;100.00;101179.63;4939063;28;19937;-90
2023/08/28 08:26:34;;;;;;;;;;;;;;;16.74;100.00;101183.78;4978629;28;20455;-91
2023/08/28 08:29:20;;;;;;;;;;;;;;;16.95;100.00;101179.66;4993659;28;19941;-90
2023/08/28 08:32:05;;;;;;;;;;;;;;;17.09;100.00;101188.59;4945728;28;20305;-91
2023/08/28 08:34:51;;;;;;;;;;;;;;;17.02;100.00;101187.31;4995783;28;20448;-90
2023/08/28 08:37:37;;;;;;;;;;;;;;;17.00;100.00;101189.22;4949372;28;19931;-91
2023/08/28 08:40:24;;;;;;;;;;;;;;;17.10;100.00;101187.63;4981673;28;20369;-90
2023/08/28 08:43:10;;;;;;;;;;;;;;;17.21;100.00;101187.78;4923841;28;19934;-87
2023/08/28 08:46:05;;;;;;;;;;;;;;;17.40;100.00;101199.91;4917777;28;19926;-88
2023/08/28 08:48:50;;;;;;;;;;;;;;;17.60;100.00;101189.63;4992490;28;19926;-88
2023/08/28 08:51:36;;;;;;;;;;;;;;;17.80;100.00;101193.56;4988817;28;19930;-88
2023/08/28 08:54:23;;;;;;;;;;;;;;;17.92;100.00;101191.84;4934580;28;19930;-87
2023/08/28 08:57:19;;;;;;;;;;;;;;;17.91;100.00;101195.50;4934695;28;20044;-86
2023/08/28 09:00:13;;;;;;;;;;;;;;;17.76;100.00;101195.63;4992321;28;19938;-87
2023/08/28 09:02:59;;;;;;;;;;;;;;;17.63;100.00;101192.94;4919460;28;20672;-87
2023/08/28 09:05:45;;;;;;;;;;;;;;;17.53;100.00;101193.69;4950666;28;20148;-86
2023/08/28 09:08:31;;;;;;;;;;;;;;;17.47;100.00;101193.16;4939796;28;19930;-84
2023/08/28 09:11:17;;;;;;;;;;;;;;;17.45;100.00;101199.56;4946916;28;19925;-85
2023/08/28 09:14:02;;;;;;;;;;;;;;;17.58;100.00;101200.44;4953854;28;19937;-86
2023/08/28 09:16:48;;;;;;;;;;;;;;;17.74;100.00;101194.00;4945832;28;19965;-86
2023/08/28 09:19:34;;;;;;;;;;;;;;;17.89;100.00;101200.97;4932191;28;19933;-87
2023/08/28 09:22:20;;;;;;;;;;;;;;;18.08;100.00;101196.16;4947376;28;19933;-88
2023/08/28 09:25:06;;;;;;;;;;;;;;;18.31;100.00;101191.81;4960387;28;20404;-90
2023/08/28 09:27:52;;;;;;;;;;;;;;;18.36;100.00;101194.16;4955624;28;20613;-88
2023/08/28 09:30:41;;;;;;;;;;;;;;;18.24;100.00;101191.38;4957079;28;19936;-87
2023/08/28 09:33:26;;;;;;;;;;;;;;;18.07;100.00;101197.13;4935306;28;19965;-87
2023/08/28 09:36:18;;;;;;;;;;;;;;;17.95;100.00;101190.75;4946460;28;20064;-87
2023/08/28 09:39:04;;;;;;;;;;;;;;;17.83;100.00;101200.53;4959509;28;19969;-83
2023/08/28 09:41:50;;;;;;;;;;;;;;;17.70;100.00;101204.06;4951383;28;19983;-81
2023/08/28 09:44:37;;;;;;;;;;;;;;;17.70;100.00;101203.22;4960558;28;19940;-82
2023/08/28 09:47:22;;;;;;;;;;;;;;;17.80;100.00;101206.13;4956878;28;20010;-83
2023/08/28 09:50:08;;;;;;;;;;;;;;;17.94;100.00;101206.00;4957345;28;19937;-82
2023/08/28 09:52:54;;;;;;;;;;;;;;;18.15;100.00;101208.13;4922148;28;19958;-84
2023/08/28 09:55:40;;;;;;;;;;;;;;;18.35;100.00;101200.47;4941580;28;20414;-85
2023/08/28 09:58:27;;;;;;;;;;;;;;;18.62;100.00;101199.41;4950004;28;19937;-83
2023/08/28 10:01:13;;;;;;;;;;;;;;;18.83;100.00;101205.84;4956059;28;19970;-77
2023/08/28 10:04:01;;;;;;;;;;;;;;;18.89;100.00;101201.84;4963923;28;21898;-78
2023/08/28 10:06:50;;;;;;;;;;;;;;;18.66;100.00;101208.94;4951651;28;19929;-77
2023/08/28 10:09:39;;;;;;;;;;;;;;;18.49;100.00;101211.03;5041339;28;20013;-76
2023/08/28 10:12:25;;;;;;;;;;;;;;;18.39;100.00;101194.78;5008968;28;20018;-76
2023/08/28 10:15:11;;;;;;;;;;;;;;;18.39;100.00;101201.94;5033684;28;20455;-76
2023/08/28 10:17:57;;;;;;;;;;;;;;;18.43;100.00;101203.44;5010183;28;19997;-76
2023/08/28 10:20:43;;;;;;;;;;;;;;;18.52;100.00;101202.75;5017884;28;19934;-76
2023/08/28 10:23:28;;;;;;;;;;;;;;;18.52;100.00;101210.81;5018540;28;19955;-76
2023/08/28 10:26:14;;;;;;;;;;;;;;;18.44;100.00;101213.19;5034083;28;19939;-77
2023/08/28 10:29:00;;;;;;;;;;;;;;;18.47;100.00;101204.94;5018679;28;20029;-76
2023/08/28 10:31:46;;;;;;;;;;;;;;;18.59;100.00;101197.81;5018822;28;20079;-76
2023/08/28 10:34:32;;;;;;;;;;;;;;;18.68;100.00;101198.97;5006586;28;20015;-76
2023/08/28 10:37:17;;;;;;;;;;;;;;;18.72;100.00;101195.06;5031324;28;19931;-76
2023/08/28 10:40:03;;;;;;;;;;;;;;;18.86;100.00;101204.78;5032756;28;19936;-77
2023/08/28 10:42:49;;;;;;;;;;;;;;;18.90;100.00;101202.72;5023506;28;19928;-77
2023/08/28 10:45:35;;;;;;;;;;;;;;;18.72;100.00;101209.34;5034871;28;19932;-77
2023/08/28 10:48:21;;;;;;;;;;;;;;;18.54;100.00;101203.53;5015246;28;19924;-78
2023/08/28 10:51:10;;;;;;;;;;;;;;;18.37;100.00;101204.75;5018464;28;19928;-76
2023/08/28 10:53:58;;;;;;;;;;;;;;;18.29;100.00;101204.44;5031070;28;20546;-75
2023/08/28 10:56:54;;;;;;;;;;;;;;;18.31;100.00;101200.69;5029848;28;19927;-76
2023/08/28 10:59:43;;;;;;;;;;;;;;;18.49;100.00;101204.81;5030315;28;19935;-75
2023/08/28 11:02:48;;;;;;;;;;;;;;;18.63;100.00;101211.84;5020438;28;20379;-75
2023/08/28 11:05:33;;;;;;;;;;;;;;;18.70;100.00;101210.41;5028455;28;20395;-77
2023/08/28 11:08:19;;;;;;;;;;;;;;;18.63;100.00;101211.84;4983176;28;19934;-76
2023/08/28 11:11:11;;;;;;;;;;;;;;;18.54;100.00;101214.25;4924826;28;19927;-76
2023/08/28 11:14:01;;;;;;;;;;;;;;;18.56;100.00;101217.66;4943412;28;20278;-76
2023/08/28 11:16:47;;;;;;;;;;;;;;;18.57;100.00;101223.84;4943165;28;20016;-77
2023/08/28 11:19:32;;;;;;;;;;;;;;;18.60;100.00;101218.28;4941720;28;20053;-77
2023/08/28 11:22:37;;;;;;;;;;;;;;;18.62;100.00;101220.88;4938858;28;19938;-77
2023/08/28 11:25:39;;;;;;;;;;;;;;;18.62;100.00;101226.22;4941590;28;19987;-77
2023/08/28 11:28:25;;;;;;;;;;;;;;;18.56;100.00;101228.38;4943235;28;19933;-77
2023/08/28 11:31:12;;;;;;;;;;;;;;;18.43;100.00;101227.56;4941503;28;19926;-77
2023/08/28 11:33:57;;;;;;;;;;;;;;;18.29;100.00;101232.09;4926375;28;19927;-77
2023/08/28 11:36:43;;;;;;;;;;;;;;;18.22;100.00;101238.88;4917310;28;19934;-77
2023/08/28 11:39:31;;;;;;;;;;;;;;;18.12;100.00;101241.34;4940935;28;19940;-77
2023/08/28 11:42:17;;;;;;;;;;;;;;;18.04;100.00;101247.22;4942358;28;19931;-77
2023/08/28 11:45:06;;;;;;;;;;;;;;;17.99;100.00;101246.72;4930104;28;19934;-77
2023/08/28 11:47:52;;;;;;;;;;;;;;;17.91;100.00;101247.25;4925978;28;20000;-77
2023/08/28 11:50:37;;;;;;;;;;;;;;;17.85;100.00;101244.13;4934837;28;20266;-77
2023/08/28 11:53:30;;;;;;;;;;;;;;;17.81;100.00;101248.84;4942739;28;19934;-77
2023/08/28 11:56:15;;;;;;;;;;;;;;;17.78;100.00;101252.59;4941255;28;20159;-76
2023/08/28 11:59:01;;;;;;;;;;;;;;;17.72;100.00;101247.69;4916210;28;19944;-76
2023/08/28 12:01:46;;;;;;;;;;;;;;;17.70;100.00;101252.25;4920848;28;19937;-77
2023/08/28 12:04:38;;;;;;;;;;;;;;;17.67;100.00;101241.78;4943486;28;20961;-77
2023/08/28 12:07:27;;;;;;;;;;;;;;;17.70;100.00;101240.72;4939784;28;20484;-76
2023/08/28 12:10:14;;;;;;;;;;;;;;;17.76;100.00;101246.47;4987969;28;19926;-76
2023/08/28 12:12:59;;;;;;;;;;;;;;;17.84;100.00;101237.06;4958893;28;21803;-77
2023/08/28 12:15:45;;;;;;;;;;;;;;;17.95;100.00;101238.97;4932040;28;19960;-77
2023/08/28 12:19:03;;;;;;;;;;;;;;;18.05;100.00;101234.72;4934444;28;23288;-78
2023/08/28 12:21:51;;;;;;;;;;;;;;;18.15;100.00;101240.28;4935762;28;20638;-78
2023/08/28 12:24:44;;;;;;;;;;;;;;;18.23;100.00;101237.91;4938579;28;20386;-78
2023/08/28 12:27:30;;;;;;;;;;;;;;;18.34;100.00;101239.81;4984112;28;19930;-79
2023/08/28 12:30:19;;;;;;;;;;;;;;;18.44;100.00;101235.50;4990198;28;20003;-79
2023/08/28 12:33:05;;;;;;;;;;;;;;;18.56;100.00;101238.25;4937780;28;20028;-78
2023/08/28 12:35:51;;;;;;;;;;;;;;;18.73;100.00;101234.31;4928820;28;19930;-78
2023/08/28 12:38:49;;;;;;;;;;;;;;;18.80;100.00;101240.09;4958581;28;20452;-78
2023/08/28 12:41:35;;;;;;;;;;;;;;;18.85;100.00;101232.56;4924368;28;20500;-78
2023/08/28 12:44:22;;;;;;;;;;;;;;;18.89;100.00;101247.44;4941490;28;19926;-78
2023/08/28 12:47:08;;;;;;;;;;;;;;;18.91;100.00;101228.56;4989430;28;20000;-79
2023/08/28 12:49:54;;;;;;;;;;;;;;;18.81;100.00;101226.56;4979198;28;19937;-78
2023/08/28 12:52:40;;;;;;;;;;;;;;;18.80;100.00;101219.47;4939583;28;19930;-77
2023/08/28 12:55:27;;;;;;;;;;;;;;;18.84;100.00;101229.00;4927592;28;20446;-78
2023/08/28 12:58:13;;;;;;;;;;;;;;;18.81;100.00;101220.34;4933539;28;19930;-78
2023/08/28 13:00:59;;;;;;;;;;;;;;;18.80;100.00;101224.00;4935527;28;19934;-79
2023/08/28 13:03:46;;;;;;;;;;;;;;;18.75;100.00;101223.47;4968031;28;19972;-79
2023/08/28 13:06:32;;;;;;;;;;;;;;;18.59;100.00;101217.41;4935111;28;20025;-79
2023/08/28 13:09:18;;;;;;;;;;;;;;;18.54;100.00;101210.69;4945864;28;19953;-78
2023/08/28 13:12:04;;;;;;;;;;;;;;;18.57;100.00;101207.78;4974367;28;19930;-81
2023/08/28 13:14:50;;;;;;;;;;;;;;;18.59;100.00;101201.34;4953033;28;19944;-79
2023/08/28 13:17:35;;;;;;;;;;;;;;;18.62;100.00;101197.56;4963635;28;19926;-79
2023/08/28 13:20:21;;;;;;;;;;;;;;;18.64;100.00;101209.06;4959934;28;20516;-79
2023/08/28 13:23:07;;;;;;;;;;;;;;;18.64;100.00;101192.09;4957888;28;20667;-79
2023/08/28 13:25:52;;;;;;;;;;;;;;;18.62;100.00;101194.06;4962281;28;20022;-78
2023/08/28 13:28:38;;;;;;;;;;;;;;;18.61;100.00;101198.53;4951527;28;19933;-77
2023/08/28 13:31:24;;;;;;;;;;;;;;;18.61;100.00;101197.72;4977928;28;19940;-79
2023/08/28 13:34:09;;;;;;;;;;;;;;;18.58;100.00;101204.16;4953462;28;19934;-79
2023/08/28 13:36:55;;;;;;;;;;;;;;;18.62;100.00;101210.13;4956890;28;19930;-78
2023/08/28 13:39:41;;;;;;;;;;;;;;;18.64;100.00;101203.69;4953454;28;20022;-78
2023/08/28 13:42:26;;;;;;;;;;;;;;;18.63;100.00;101198.44;4962299;28;19930;-78
2023/08/28 13:45:12;;;;;;;;;;;;;;;18.71;100.00;101190.69;4963407;27;19941;-80
2023/08/28 13:47:58;;;;;;;;;;;;;;;18.73;100.00;101196.78;4949271;28;20626;-78
2023/08/28 13:50:44;;;;;;;;;;;;;;;18.72;100.00;101203.09;4936935;28;20339;-79
2023/08/28 13:53:31;;;;;;;;;;;;;;;18.74;100.00;101209.19;4956868;28;19937;-80
2023/08/28 13:56:17;;;;;;;;;;;;;;;18.72;100.00;101205.78;4955296;28;20626;-81
2023/08/28 13:59:05;;;;;;;;;;;;;;;18.71;100.00;101204.09;4960993;28;20045;-80
2023/08/28 14:01:51;;;;;;;;;;;;;;;18.71;100.00;101201.41;4957379;28;20659;-79
2023/08/28 14:04:36;;;;;;;;;;;;;;;18.80;100.00;101203.38;4947299;28;19926;-80
2023/08/28 14:07:22;;;;;;;;;;;;;;;18.83;100.00;101205.84;4949566;28;19941;-80